Accueil
METAR-TAF:

METAR-TAF

Aéroports :

Centralia Municipal Airport

Centralia, Illinois, États-Unis

latitude: 38-30-53N, longitude: 089-05-32W, altitude: 163 m

Observation

Le bulletin a été fait il y a 11 minutes, à 05:55 UTC
Vent calme
Température 21°C
Humidité 94%
Pression 1016 hPa
Visibilité: 16.1 km
Ciel clair

METAR: KENL 150555Z AUTO 00000KT 10SM CLR 21/20 A3000 RMK AO2 T02070197 10300 20207 403260164

Heure: 01:06 (06:06 UTC)


TAF: absent

Observations et prévisions météorologiques de plus de 4000 aéroports (messages METAR et TAF).

Les stations disponibles sont représentées par des disques jaunes et rouges sur la carte.

Passer la souris dessus pour voir le nom de la station.

Cliquer dessus pour voir les observations et prévisions météorologiques.

Pour changer de carte: cliquez sur les boutons verts avec une croix noire pour zoomer, sur le bouton vert avec un tiret pour effectuer un zoom arrière, ou sur les flèches vertes pour les cartes adjacentes.


METAR-TAF: